createdAt,value
2017-09-16T00:02:03.346Z,8.3
2017-09-16T00:07:03.118Z,8.3
2017-09-16T00:12:03.201Z,8.3
2017-09-16T00:17:02.936Z,8.4
2017-09-16T00:22:02.892Z,8.4
2017-09-16T00:27:03.471Z,8.3
2017-09-16T00:32:03.053Z,8.2
2017-09-16T00:37:03.038Z,8.2
2017-09-16T00:42:02.732Z,8.1
2017-09-16T00:47:05.946Z,7.9
2017-09-16T00:52:02.602Z,7.8
2017-09-16T00:57:03.487Z,7.6
2017-09-16T01:02:03.344Z,7.5
2017-09-16T01:07:03.486Z,7.6
2017-09-16T01:12:03.294Z,7.6
2017-09-16T01:17:03.448Z,7.7
2017-09-16T01:22:03.041Z,7.7
2017-09-16T01:27:03.128Z,7.8
2017-09-16T01:32:03.178Z,7.5
2017-09-16T01:37:03.119Z,7.5
2017-09-16T01:42:02.834Z,7.5
2017-09-16T01:47:02.854Z,7.3
2017-09-16T01:52:02.887Z,7.3
2017-09-16T01:57:02.903Z,7.2
2017-09-16T02:02:02.830Z,7.3
2017-09-16T02:07:03.318Z,7.2
2017-09-16T02:12:03.320Z,7.2
2017-09-16T02:17:03.191Z,7.2
2017-09-16T02:22:03.049Z,7.1
2017-09-16T02:27:02.943Z,7.1
2017-09-16T02:32:02.707Z,7.0
2017-09-16T02:37:03.133Z,6.9
2017-09-16T02:42:03.336Z,6.8
2017-09-16T02:47:02.702Z,6.5
2017-09-16T02:52:03.011Z,6.4
2017-09-16T02:57:03.278Z,6.5
2017-09-16T03:02:03.645Z,6.4
2017-09-16T03:07:02.982Z,6.2
2017-09-16T03:12:03.429Z,6.1
2017-09-16T03:17:02.907Z,6.2
2017-09-16T03:22:03.155Z,6.2
2017-09-16T03:27:03.382Z,6.2
2017-09-16T03:32:02.832Z,6.2
2017-09-16T03:37:03.058Z,6.1
2017-09-16T03:42:03.311Z,6.0
2017-09-16T03:47:03.578Z,5.9
2017-09-16T03:52:02.952Z,5.8
2017-09-16T03:57:03.170Z,5.9
2017-09-16T04:02:03.854Z,6.0
2017-09-16T04:07:03.043Z,6.1
2017-09-16T04:12:03.419Z,6.1
2017-09-16T04:17:02.964Z,6.1
2017-09-16T04:22:03.171Z,6.2
2017-09-16T04:27:03.422Z,6.1
2017-09-16T04:32:04.552Z,6.1
2017-09-16T04:37:03.236Z,6.1
2017-09-16T04:42:02.625Z,6.2
2017-09-16T04:47:13.758Z,6.4
2017-09-16T04:52:02.913Z,6.4
2017-09-16T04:57:03.200Z,6.3
2017-09-16T05:02:17.686Z,6.2
2017-09-16T05:07:03.064Z,6.2
2017-09-16T05:12:02.811Z,6.3
2017-09-16T05:17:14.080Z,6.5
2017-09-16T05:22:02.865Z,6.6
2017-09-16T05:27:03.324Z,6.8
2017-09-16T05:32:14.092Z,6.7
2017-09-16T05:37:03.048Z,7.0
2017-09-16T05:42:02.870Z,7.2
2017-09-16T05:47:17.497Z,7.5
2017-09-16T05:52:03.064Z,7.5
2017-09-16T05:57:03.447Z,7.8
2017-09-16T06:02:17.522Z,8.0
2017-09-16T06:07:03.456Z,8.2
2017-09-16T06:12:03.116Z,8.4
2017-09-16T06:17:18.000Z,8.4
2017-09-16T06:22:03.558Z,8.4
2017-09-16T06:27:02.955Z,8.8
2017-09-16T06:32:13.662Z,8.7
2017-09-16T06:37:02.833Z,9.0
2017-09-16T06:42:03.331Z,9.2
2017-09-16T06:47:13.040Z,9.6
2017-09-16T06:52:03.088Z,9.5
2017-09-16T06:57:03.515Z,9.9
2017-09-16T07:02:13.229Z,10.1
2017-09-16T07:07:02.887Z,10.3
2017-09-16T07:12:03.489Z,10.3
2017-09-16T07:17:17.357Z,10.6
2017-09-16T07:22:03.482Z,10.8
2017-09-16T07:27:02.855Z,11.1
2017-09-16T07:32:17.880Z,11.6
2017-09-16T07:37:03.399Z,11.6
2017-09-16T07:42:02.713Z,11.8
2017-09-16T07:47:13.092Z,11.9
2017-09-16T07:52:02.629Z,12.3
2017-09-16T07:57:03.062Z,12.3
2017-09-16T08:02:17.720Z,12.5
2017-09-16T08:07:02.996Z,12.5
2017-09-16T08:12:03.525Z,12.7
2017-09-16T08:17:17.696Z,12.7
2017-09-16T08:22:03.539Z,13.0
2017-09-16T08:27:03.032Z,13.1
2017-09-16T08:32:23.069Z,13.4
2017-09-16T08:37:03.443Z,13.4
2017-09-16T08:42:03.039Z,13.7
2017-09-16T08:47:13.772Z,14.4
2017-09-16T08:52:02.757Z,14.4
2017-09-16T08:57:03.330Z,14.8
2017-09-16T09:02:09.987Z,15.1
2017-09-16T09:07:03.246Z,15.8
2017-09-16T09:12:02.915Z,15.8
2017-09-16T09:17:13.948Z,16.4
2017-09-16T09:22:03.428Z,16.4
2017-09-16T09:27:03.150Z,16.9
2017-09-16T09:32:28.044Z,17.4
2017-09-16T09:37:03.450Z,17.6
2017-09-16T09:42:02.859Z,17.7
2017-09-16T09:47:17.308Z,18.1
2017-09-16T09:52:02.854Z,18.0
2017-09-16T09:57:03.371Z,18.2
2017-09-16T10:02:16.414Z,18.6
2017-09-16T10:07:03.181Z,18.6
2017-09-16T10:12:03.049Z,18.9
2017-09-16T10:17:17.347Z,19.3
2017-09-16T10:22:03.299Z,19.7
2017-09-16T10:27:03.568Z,20.1
2017-09-16T10:32:17.542Z,20.2
2017-09-16T10:37:02.804Z,20.5
2017-09-16T10:42:03.295Z,20.9
2017-09-16T10:47:16.738Z,21.8
2017-09-16T10:52:03.315Z,21.7
2017-09-16T10:57:02.953Z,21.8
2017-09-16T11:02:13.751Z,22.0
2017-09-16T11:07:03.133Z,22.2
2017-09-16T11:12:02.738Z,22.6
2017-09-16T11:17:17.212Z,22.6
2017-09-16T11:22:02.936Z,23.4
2017-09-16T11:27:03.401Z,23.8
2017-09-16T11:32:16.492Z,23.8
2017-09-16T11:37:03.344Z,23.8
2017-09-16T11:42:02.804Z,23.8
2017-09-16T11:47:13.730Z,23.4
2017-09-16T11:52:02.706Z,22.2
2017-09-16T11:57:03.186Z,21.1
2017-09-16T12:02:17.214Z,20.1
2017-09-16T12:07:02.849Z,20.1
2017-09-16T12:12:02.884Z,19.8
2017-09-16T12:17:18.338Z,19.5
2017-09-16T12:22:03.473Z,19.2
2017-09-16T12:27:02.878Z,19.3
2017-09-16T12:32:13.911Z,18.9
2017-09-16T12:37:03.009Z,18.6
2017-09-16T12:42:03.424Z,18.5
2017-09-16T12:47:13.168Z,18.5
2017-09-16T12:52:02.713Z,18.5
2017-09-16T12:57:03.245Z,18.4
2017-09-16T13:02:12.927Z,18.0
2017-09-16T13:07:02.788Z,17.9
2017-09-16T13:12:03.424Z,17.7
2017-09-16T13:17:17.578Z,17.3
2017-09-16T13:22:03.553Z,16.7
2017-09-16T13:27:03.136Z,16.6
2017-09-16T13:32:17.519Z,16.3
2017-09-16T13:37:03.124Z,15.9
2017-09-16T13:42:03.457Z,15.4
2017-09-16T13:47:16.887Z,15.0
2017-09-16T13:52:02.697Z,14.3
2017-09-16T13:57:02.709Z,13.5
2017-09-16T14:02:28.901Z,12.1
2017-09-16T14:07:02.875Z,12.0
2017-09-16T14:12:03.440Z,11.8
2017-09-16T14:17:13.394Z,11.6
2017-09-16T14:22:03.535Z,11.6
2017-09-16T14:27:02.968Z,11.7
2017-09-16T14:32:17.303Z,11.6
2017-09-16T14:37:03.270Z,12.0
2017-09-16T14:42:03.613Z,12.0
2017-09-16T14:47:13.603Z,12.0
2017-09-16T14:52:02.773Z,12.2
2017-09-16T14:57:03.340Z,12.2
2017-09-16T15:02:13.113Z,12.1
2017-09-16T15:07:03.282Z,12.0
2017-09-16T15:12:03.086Z,12.0
2017-09-16T15:17:13.739Z,12.0
2017-09-16T15:22:03.189Z,11.9
2017-09-16T15:27:03.652Z,11.9
2017-09-16T15:32:13.341Z,12.0
2017-09-16T15:37:03.540Z,12.0
2017-09-16T15:42:03.065Z,12.0
2017-09-16T15:47:17.345Z,11.9
2017-09-16T15:52:03.122Z,11.8
2017-09-16T15:57:03.540Z,11.8
2017-09-16T16:02:17.323Z,12.1
2017-09-16T16:07:02.917Z,12.0
2017-09-16T16:12:03.407Z,12.0
2017-09-16T16:17:17.940Z,11.8
2017-09-16T16:22:02.899Z,11.8
2017-09-16T16:27:03.343Z,11.8
2017-09-16T16:32:22.348Z,12.0
2017-09-16T16:37:03.372Z,12.0
2017-09-16T16:42:02.826Z,12.0
2017-09-16T16:47:13.603Z,11.9
2017-09-16T16:52:02.749Z,12.0
2017-09-16T16:57:03.204Z,11.9
2017-09-16T17:02:18.309Z,12.0
2017-09-16T17:07:03.274Z,12.0
2017-09-16T17:12:02.790Z,12.4
2017-09-16T17:17:13.736Z,15.3
2017-09-16T17:22:03.432Z,16.7
2017-09-16T17:27:02.813Z,15.4
2017-09-16T17:32:13.999Z,13.8
2017-09-16T17:37:03.110Z,13.7
2017-09-16T17:42:03.120Z,13.3
2017-09-16T17:47:13.978Z,12.8
2017-09-16T17:52:02.776Z,12.0
2017-09-16T17:57:03.320Z,11.9
2017-09-16T18:02:13.421Z,11.6
2017-09-16T18:07:02.865Z,11.4
2017-09-16T18:12:03.282Z,11.3
2017-09-16T18:17:06.685Z,11.1
2017-09-16T18:22:02.997Z,11.0
2017-09-16T18:27:03.379Z,10.8
2017-09-16T18:32:02.779Z,10.6
2017-09-16T18:37:03.136Z,10.6
2017-09-16T18:42:03.388Z,10.6
2017-09-16T18:47:03.070Z,10.6
2017-09-16T18:52:03.049Z,10.5
2017-09-16T18:57:03.390Z,10.5
2017-09-16T19:02:03.087Z,10.3
2017-09-16T19:07:03.257Z,10.2
2017-09-16T19:12:02.848Z,10.0
2017-09-16T19:17:03.605Z,10.0
2017-09-16T19:22:03.547Z,10.0
2017-09-16T19:27:02.879Z,9.9
2017-09-16T19:32:03.266Z,9.9
2017-09-16T19:37:03.818Z,9.9
2017-09-16T19:42:02.900Z,9.9
2017-09-16T19:47:03.580Z,9.8
2017-09-16T19:52:03.492Z,9.8
2017-09-16T19:57:02.904Z,9.6
2017-09-16T20:02:03.370Z,9.8
2017-09-16T20:07:02.772Z,9.8
2017-09-16T20:12:03.163Z,10.0
2017-09-16T20:17:03.501Z,10.1
2017-09-16T20:22:02.890Z,10.2
2017-09-16T20:27:03.133Z,10.2
2017-09-16T20:32:03.451Z,10.2
2017-09-16T20:37:02.864Z,10.3
2017-09-16T20:42:03.121Z,10.2
2017-09-16T20:47:03.497Z,10.1
2017-09-16T20:52:02.765Z,10.1
2017-09-16T20:57:03.107Z,10.1
2017-09-16T21:02:03.366Z,9.9
2017-09-16T21:07:02.872Z,9.9
2017-09-16T21:12:03.242Z,9.8
2017-09-16T21:17:03.548Z,9.8
2017-09-16T21:22:02.936Z,9.7
2017-09-16T21:27:03.171Z,9.8
2017-09-16T21:32:03.417Z,9.8
2017-09-16T21:37:02.799Z,9.7
2017-09-16T21:42:02.983Z,9.7
2017-09-16T21:47:03.320Z,9.6
2017-09-16T21:52:02.627Z,9.6
2017-09-16T21:57:03.013Z,9.6
2017-09-16T22:02:03.415Z,9.7
2017-09-16T22:07:03.505Z,9.9
2017-09-16T22:12:02.910Z,9.8
2017-09-16T22:22:03.326Z,9.6
2017-09-16T22:27:03.678Z,9.4
2017-09-16T22:32:03.524Z,9.5
2017-09-16T22:37:03.516Z,9.4
2017-09-16T22:42:03.221Z,9.4
2017-09-16T22:47:02.943Z,9.3
2017-09-16T22:52:03.324Z,9.2
2017-09-16T22:57:02.892Z,9.1
2017-09-16T23:02:05.926Z,9.1
2017-09-16T23:07:03.123Z,9.0
2017-09-16T23:12:03.056Z,9.0
2017-09-16T23:17:03.419Z,8.8
2017-09-16T23:22:03.252Z,8.8
2017-09-16T23:27:02.935Z,8.8
2017-09-16T23:32:03.605Z,8.7
2017-09-16T23:37:02.900Z,8.6
2017-09-16T23:42:02.776Z,8.5
2017-09-16T23:47:03.540Z,8.4
2017-09-16T23:52:02.742Z,8.4
2017-09-16T23:57:02.667Z,8.4
